createdAt,value
2023-04-04T00:00:22.983Z,66.62
2023-04-04T00:05:26.491Z,66.70
2023-04-04T00:10:29.184Z,66.51
2023-04-04T00:15:31.908Z,65.72
2023-04-04T00:20:34.644Z,65.77
2023-04-04T00:25:38.174Z,66.32
2023-04-04T00:30:41.117Z,65.60
2023-04-04T00:35:44.146Z,65.78
2023-04-04T00:40:49.045Z,65.04
2023-04-04T00:45:52.675Z,64.78
2023-04-04T00:50:55.463Z,64.82
2023-04-04T00:55:58.304Z,64.59
2023-04-04T01:01:01.886Z,64.40
2023-04-04T01:06:04.777Z,64.22
2023-04-04T01:11:07.696Z,63.40
2023-04-04T01:16:10.725Z,63.63
2023-04-04T01:21:14.996Z,63.21
2023-04-04T01:26:18.020Z,62.72
2023-04-04T01:31:29.893Z,62.58
2023-04-04T01:36:59.515Z,62.34
2023-04-04T01:42:03.656Z,61.69
2023-04-04T01:47:10.189Z,60.80
2023-04-04T01:52:13.434Z,60.84
2023-04-04T01:57:16.374Z,60.18
2023-04-04T02:02:19.791Z,60.42
2023-04-04T02:07:22.452Z,60.44
2023-04-04T02:12:25.430Z,60.26
2023-04-04T02:17:28.835Z,60.80
2023-04-04T02:22:31.946Z,61.22
2023-04-04T02:27:34.981Z,61.54
2023-04-04T02:32:38.560Z,61.06
2023-04-04T02:37:46.511Z,61.67
2023-04-04T02:42:56.246Z,61.41
2023-04-04T02:47:59.175Z,61.40
2023-04-04T02:53:12.227Z,60.90
2023-04-04T02:58:15.165Z,61.06
2023-04-04T03:03:18.176Z,61.06
2023-04-04T03:08:22.938Z,60.52
2023-04-04T03:13:25.677Z,60.41
2023-04-04T03:18:28.597Z,59.40
2023-04-04T03:23:31.376Z,59.98
2023-04-04T03:28:34.209Z,59.81
2023-04-04T03:33:38.549Z,59.80
2023-04-04T03:38:41.968Z,59.60
2023-04-04T03:43:46.077Z,59.32
2023-04-04T03:48:48.871Z,58.29
2023-04-04T03:53:52.704Z,57.80
2023-04-04T03:58:56.863Z,57.51
2023-04-04T04:04:01.597Z,56.79
2023-04-04T04:09:04.477Z,56.95
2023-04-04T04:14:09.620Z,56.00
2023-04-04T04:19:13.219Z,56.52
2023-04-04T04:24:17.699Z,56.31
2023-04-04T04:29:20.489Z,55.73
2023-04-04T04:34:23.405Z,56.08
2023-04-04T04:39:27.628Z,55.60
2023-04-04T04:44:50.626Z,55.29
2023-04-04T04:49:54.081Z,54.57
2023-04-04T04:55:08.372Z,52.84
2023-04-04T05:00:15.385Z,51.55
2023-04-04T05:05:21.679Z,50.64
2023-04-04T05:10:25.113Z,49.62
2023-04-04T05:15:30.275Z,48.87
2023-04-04T05:20:33.788Z,48.05
2023-04-04T05:25:38.420Z,47.66
2023-04-04T05:30:42.246Z,48.23
2023-04-04T05:35:50.360Z,48.05
2023-04-04T05:40:54.879Z,48.01
2023-04-04T05:45:58.815Z,47.98
2023-04-04T05:51:03.469Z,48.12
2023-04-04T05:56:17.034Z,48.37
2023-04-04T06:01:20.606Z,47.91
2023-04-04T06:06:26.936Z,47.56
2023-04-04T06:11:30.324Z,47.50
2023-04-04T06:16:39.379Z,45.88
2023-04-04T06:21:42.114Z,44.25
2023-04-04T06:26:46.212Z,42.06
2023-04-04T06:31:50.159Z,40.43
2023-04-04T06:36:59.163Z,40.70
2023-04-04T06:42:06.600Z,40.58
2023-04-04T06:47:11.285Z,39.90
2023-04-04T06:52:14.188Z,37.96
2023-04-04T06:57:18.607Z,37.73
2023-04-04T07:02:22.239Z,35.82
2023-04-04T07:07:25.191Z,35.24
2023-04-04T07:12:27.919Z,36.20
2023-04-04T07:17:33.328Z,36.92
2023-04-04T07:22:40.260Z,36.50
2023-04-04T07:27:43.205Z,37.18
2023-04-04T07:32:46.365Z,36.91
2023-04-04T07:37:49.141Z,37.23
2023-04-04T07:42:52.167Z,37.01
2023-04-04T07:47:55.004Z,36.84
2023-04-04T07:52:59.046Z,37.08
2023-04-04T07:58:01.932Z,37.02
2023-04-04T08:03:04.761Z,36.80
2023-04-04T08:08:07.763Z,37.18
2023-04-04T08:13:10.448Z,37.41
2023-04-04T08:18:13.383Z,38.35
2023-04-04T08:23:16.145Z,38.93
2023-04-04T08:28:18.928Z,38.75
2023-04-04T08:33:31.617Z,38.92
2023-04-04T08:38:47.303Z,38.47
2023-04-04T08:43:54.905Z,37.91
2023-04-04T08:49:00.126Z,38.53
2023-04-04T08:54:03.428Z,38.45
2023-04-04T08:59:06.724Z,39.39
2023-04-04T09:04:09.971Z,39.77
2023-04-04T09:09:12.882Z,40.10
2023-04-04T09:14:15.817Z,40.58
2023-04-04T09:19:18.584Z,40.40
2023-04-04T09:24:21.506Z,40.74
2023-04-04T09:29:24.320Z,42.42
2023-04-04T09:34:29.427Z,44.05
2023-04-04T09:39:33.178Z,46.03
2023-04-04T09:44:37.262Z,49.88
2023-04-04T09:49:40.745Z,52.83
2023-04-04T09:54:48.362Z,55.11
2023-04-04T09:59:51.830Z,57.40
2023-04-04T10:05:05.132Z,60.18
2023-04-04T10:10:09.616Z,62.47
2023-04-04T10:15:12.504Z,65.39
2023-04-04T10:20:15.540Z,67.65
2023-04-04T10:25:18.606Z,67.50
2023-04-04T10:30:21.598Z,69.41
2023-04-04T10:35:25.182Z,73.42
2023-04-04T10:40:33.633Z,75.30
2023-04-04T10:45:40.496Z,77.22
2023-04-04T10:50:43.678Z,79.42
2023-04-04T10:55:47.050Z,80.43
2023-04-04T11:00:55.571Z,79.74
2023-04-04T11:06:02.228Z,78.53
2023-04-04T11:11:09.737Z,78.33
2023-04-04T11:16:21.541Z,79.85
2023-04-04T11:21:25.373Z,80.09
2023-04-04T11:26:31.081Z,81.65
2023-04-04T11:31:36.112Z,81.73
2023-04-04T11:36:39.283Z,81.83
2023-04-04T11:41:57.676Z,82.47
2023-04-04T11:47:06.382Z,82.97
2023-04-04T11:52:11.376Z,83.60
2023-04-04T11:57:19.214Z,83.59
2023-04-04T12:02:32.274Z,83.14
2023-04-04T12:07:35.669Z,83.40
2023-04-04T12:12:39.894Z,82.99
2023-04-04T12:17:44.515Z,80.70
2023-04-04T12:22:50.497Z,78.24
2023-04-04T12:27:54.423Z,77.92
2023-04-04T12:32:57.725Z,77.96
2023-04-04T12:38:14.169Z,77.81
2023-04-04T12:43:18.102Z,77.75
2023-04-04T12:48:28.066Z,77.76
2023-04-04T12:53:33.318Z,77.36
2023-04-04T12:58:37.894Z,77.12
2023-04-04T13:03:41.078Z,79.05
2023-04-04T13:08:52.422Z,79.80
2023-04-04T13:14:04.857Z,79.84
2023-04-04T13:19:07.703Z,79.34
2023-04-04T13:24:10.447Z,80.06
2023-04-04T13:29:13.154Z,81.11
2023-04-04T13:34:15.980Z,79.95
2023-04-04T13:39:18.879Z,79.67
2023-04-04T13:44:21.590Z,79.05
2023-04-04T13:49:24.329Z,77.78
2023-04-04T13:54:27.089Z,76.79
2023-04-04T13:59:29.908Z,70.81
2023-04-04T14:04:32.729Z,66.60
2023-04-04T14:09:35.635Z,66.46
2023-04-04T14:14:38.411Z,66.66
2023-04-04T14:19:42.740Z,67.09
2023-04-04T14:24:45.431Z,68.01
2023-04-04T14:29:48.607Z,68.53
2023-04-04T14:34:51.411Z,68.21
2023-04-04T14:39:54.209Z,68.74
2023-04-04T14:44:57.059Z,68.96
2023-04-04T14:50:01.180Z,70.13
2023-04-04T14:55:06.445Z,70.60
2023-04-04T15:00:10.803Z,70.74
2023-04-04T15:05:15.151Z,71.69
2023-04-04T15:10:17.942Z,72.20
2023-04-04T15:15:23.126Z,72.73
2023-04-04T15:20:26.464Z,72.77
2023-04-04T15:25:30.190Z,72.51
2023-04-04T15:30:33.717Z,72.91
2023-04-04T15:35:36.657Z,73.32
2023-04-04T15:40:39.782Z,72.36
2023-04-04T15:45:42.970Z,72.53
2023-04-04T15:50:45.785Z,72.12
2023-04-04T15:55:48.526Z,71.88
2023-04-04T16:00:51.457Z,71.55
2023-04-04T16:05:54.377Z,70.52
2023-04-04T16:10:58.538Z,70.35
2023-04-04T16:16:01.306Z,70.50
2023-04-04T16:21:05.000Z,69.77
2023-04-04T16:26:07.739Z,70.22
2023-04-04T16:31:10.473Z,70.64
2023-04-04T16:36:13.524Z,70.60
2023-04-04T16:41:17.006Z,71.10
2023-04-04T16:46:20.022Z,71.63
2023-04-04T16:51:23.034Z,71.50
2023-04-04T16:56:25.933Z,71.95
2023-04-04T17:01:28.675Z,71.89
2023-04-04T17:06:31.692Z,71.68
2023-04-04T17:11:45.048Z,71.46
2023-04-04T17:16:48.501Z,71.92
2023-04-04T17:21:51.595Z,71.47
2023-04-04T17:26:56.430Z,70.57
2023-04-04T17:32:00.053Z,70.71
2023-04-04T17:37:03.144Z,69.58
2023-04-04T17:42:06.387Z,69.71
2023-04-04T17:47:09.237Z,70.19
2023-04-04T17:52:14.583Z,69.17
2023-04-04T17:57:17.924Z,68.19
2023-04-04T18:02:21.029Z,68.40
2023-04-04T18:07:23.688Z,68.37
2023-04-04T18:12:30.452Z,68.07
2023-04-04T18:17:33.765Z,67.07
2023-04-04T18:22:36.803Z,67.64
2023-04-04T18:27:39.592Z,67.79
2023-04-04T18:32:42.839Z,67.97
2023-04-04T18:37:45.573Z,67.39
2023-04-04T18:42:48.510Z,66.82
2023-04-04T18:47:51.564Z,66.28
2023-04-04T18:52:54.297Z,66.87
2023-04-04T18:57:57.837Z,66.55
2023-04-04T19:03:01.002Z,66.72
2023-04-04T19:08:06.857Z,66.08
2023-04-04T19:13:09.531Z,66.35
2023-04-04T19:18:12.586Z,65.50
2023-04-04T19:23:15.329Z,66.38
2023-04-04T19:28:18.260Z,66.09
2023-04-04T19:33:24.954Z,66.15
2023-04-04T19:38:33.626Z,66.10
2023-04-04T19:43:36.690Z,65.97
2023-04-04T19:48:50.901Z,66.10
2023-04-04T19:53:56.302Z,66.28
2023-04-04T19:59:06.286Z,66.08
2023-04-04T20:04:11.291Z,66.18
2023-04-04T20:09:33.114Z,66.10
2023-04-04T20:14:35.939Z,66.69
2023-04-04T20:19:38.733Z,66.59
2023-04-04T20:24:42.723Z,66.56
2023-04-04T20:29:45.461Z,66.60
2023-04-04T20:34:50.803Z,66.83
2023-04-04T20:40:09.213Z,66.50
2023-04-04T20:45:11.982Z,66.97
2023-04-04T20:50:17.427Z,66.73
2023-04-04T20:55:21.365Z,66.52
2023-04-04T21:00:39.834Z,66.23
2023-04-04T21:05:43.050Z,66.30
2023-04-04T21:10:52.164Z,65.90
2023-04-04T21:16:02.791Z,65.91
2023-04-04T21:21:10.284Z,65.75
2023-04-04T21:26:29.986Z,66.13
2023-04-04T21:31:39.969Z,66.36
2023-04-04T21:36:43.850Z,66.41
2023-04-04T21:41:47.550Z,66.18
2023-04-04T21:46:50.485Z,66.05
2023-04-04T21:51:53.273Z,66.28
2023-04-04T21:56:56.338Z,66.09
2023-04-04T22:01:59.138Z,66.35
2023-04-04T22:07:01.937Z,66.11
2023-04-04T22:12:05.586Z,66.43
2023-04-04T22:17:08.342Z,66.72
2023-04-04T22:22:11.449Z,66.34
2023-04-04T22:27:15.010Z,66.78
2023-04-04T22:32:17.917Z,66.91
2023-04-04T22:37:21.963Z,66.59
2023-04-04T22:42:24.637Z,67.01
2023-04-04T22:47:27.319Z,67.19
2023-04-04T22:52:31.041Z,67.31
2023-04-04T22:57:33.736Z,67.24
2023-04-04T23:02:37.129Z,67.66
2023-04-04T23:07:40.382Z,67.56
2023-04-04T23:12:43.280Z,67.51
2023-04-04T23:17:46.913Z,67.27
2023-04-04T23:22:49.644Z,67.54
2023-04-04T23:27:52.558Z,68.21
2023-04-04T23:32:55.563Z,68.00
2023-04-04T23:37:58.375Z,67.15
2023-04-04T23:43:01.224Z,66.78
2023-04-04T23:48:04.092Z,66.79
2023-04-04T23:53:06.995Z,66.83
2023-04-04T23:58:09.691Z,66.67
